sensor_id;sensor_type;location;lat;lon;timestamp;P1;durP1;ratioP1;P2;durP2;ratioP2
71626;SDS011;59475;52.464;13.590;2023-09-30T00:00:00;2.30;;;1.00;;
71626;SDS011;59475;52.464;13.590;2023-09-30T00:02:26;2.22;;;1.00;;
71626;SDS011;59475;52.464;13.590;2023-09-30T00:04:52;7.07;;;1.10;;
71626;SDS011;59475;52.464;13.590;2023-09-30T00:07:18;2.20;;;0.90;;
71626;SDS011;59475;52.464;13.590;2023-09-30T00:09:43;4.07;;;1.20;;
71626;SDS011;59475;52.464;13.590;2023-09-30T00:12:09;4.43;;;1.40;;
71626;SDS011;59475;52.464;13.590;2023-09-30T00:14:34;2.67;;;1.50;;
71626;SDS011;59475;52.464;13.590;2023-09-30T00:17:01;3.80;;;1.43;;
71626;SDS011;59475;52.464;13.590;2023-09-30T00:19:26;6.38;;;1.50;;
71626;SDS011;59475;52.464;13.590;2023-09-30T00:21:51;3.60;;;1.63;;
71626;SDS011;59475;52.464;13.590;2023-09-30T00:24:17;2.03;;;1.20;;
71626;SDS011;59475;52.464;13.590;2023-09-30T00:26:42;3.93;;;1.40;;
71626;SDS011;59475;52.464;13.590;2023-09-30T00:29:08;2.47;;;1.03;;
71626;SDS011;59475;52.464;13.590;2023-09-30T00:31:34;4.33;;;1.30;;
71626;SDS011;59475;52.464;13.590;2023-09-30T00:33:59;2.80;;;1.23;;
71626;SDS011;59475;52.464;13.590;2023-09-30T00:36:25;4.88;;;1.27;;
71626;SDS011;59475;52.464;13.590;2023-09-30T00:38:50;5.10;;;1.60;;
71626;SDS011;59475;52.464;13.590;2023-09-30T00:41:17;6.37;;;1.73;;
71626;SDS011;59475;52.464;13.590;2023-09-30T00:43:42;6.95;;;1.92;;
71626;SDS011;59475;52.464;13.590;2023-09-30T00:48:53;5.05;;;2.00;;
71626;SDS011;59475;52.464;13.590;2023-09-30T00:51:20;6.47;;;1.67;;
71626;SDS011;59475;52.464;13.590;2023-09-30T00:53:47;4.90;;;1.70;;
71626;SDS011;59475;52.464;13.590;2023-09-30T00:56:14;7.13;;;1.85;;
71626;SDS011;59475;52.464;13.590;2023-09-30T00:58:40;7.33;;;1.77;;
71626;SDS011;59475;52.464;13.590;2023-09-30T01:01:06;6.60;;;1.95;;
71626;SDS011;59475;52.464;13.590;2023-09-30T01:03:32;7.78;;;2.20;;
71626;SDS011;59475;52.464;13.590;2023-09-30T01:05:59;7.97;;;2.10;;
71626;SDS011;59475;52.464;13.590;2023-09-30T01:08:24;7.70;;;2.30;;
71626;SDS011;59475;52.464;13.590;2023-09-30T01:10:52;5.97;;;2.05;;
71626;SDS011;59475;52.464;13.590;2023-09-30T01:13:18;6.53;;;1.85;;
71626;SDS011;59475;52.464;13.590;2023-09-30T01:15:43;10.57;;;2.27;;
71626;SDS011;59475;52.464;13.590;2023-09-30T01:18:09;10.27;;;2.33;;
71626;SDS011;59475;52.464;13.590;2023-09-30T01:20:34;8.45;;;1.70;;
71626;SDS011;59475;52.464;13.590;2023-09-30T01:23:01;6.23;;;1.83;;
71626;SDS011;59475;52.464;13.590;2023-09-30T01:25:28;6.53;;;1.80;;
71626;SDS011;59475;52.464;13.590;2023-09-30T01:27:54;20.70;;;3.15;;
71626;SDS011;59475;52.464;13.590;2023-09-30T01:30:19;6.87;;;2.17;;
71626;SDS011;59475;52.464;13.590;2023-09-30T01:32:47;8.20;;;2.00;;
71626;SDS011;59475;52.464;13.590;2023-09-30T01:35:13;10.87;;;2.53;;
71626;SDS011;59475;52.464;13.590;2023-09-30T01:37:39;5.85;;;1.73;;
71626;SDS011;59475;52.464;13.590;2023-09-30T01:40:04;8.73;;;2.20;;
71626;SDS011;59475;52.464;13.590;2023-09-30T01:45:57;8.02;;;2.60;;
71626;SDS011;59475;52.464;13.590;2023-09-30T01:48:23;8.30;;;1.97;;
71626;SDS011;59475;52.464;13.590;2023-09-30T01:50:48;9.60;;;2.47;;
71626;SDS011;59475;52.464;13.590;2023-09-30T01:53:13;10.07;;;2.33;;
71626;SDS011;59475;52.464;13.590;2023-09-30T01:55:39;11.27;;;2.47;;
71626;SDS011;59475;52.464;13.590;2023-09-30T01:58:04;9.80;;;2.50;;
71626;SDS011;59475;52.464;13.590;2023-09-30T02:00:30;9.52;;;2.13;;
71626;SDS011;59475;52.464;13.590;2023-09-30T02:02:55;10.40;;;2.43;;
71626;SDS011;59475;52.464;13.590;2023-09-30T02:05:21;10.63;;;2.55;;
71626;SDS011;59475;52.464;13.590;2023-09-30T02:07:48;11.37;;;2.37;;
71626;SDS011;59475;52.464;13.590;2023-09-30T02:10:13;7.50;;;2.15;;
71626;SDS011;59475;52.464;13.590;2023-09-30T02:12:38;12.63;;;2.93;;
71626;SDS011;59475;52.464;13.590;2023-09-30T02:15:04;10.50;;;3.03;;
71626;SDS011;59475;52.464;13.590;2023-09-30T02:17:32;10.45;;;2.50;;
71626;SDS011;59475;52.464;13.590;2023-09-30T02:19:57;4.93;;;2.50;;
71626;SDS011;59475;52.464;13.590;2023-09-30T02:22:22;9.63;;;2.60;;
71626;SDS011;59475;52.464;13.590;2023-09-30T02:24:49;8.40;;;2.42;;
71626;SDS011;59475;52.464;13.590;2023-09-30T02:27:15;6.67;;;2.60;;
71626;SDS011;59475;52.464;13.590;2023-09-30T02:29:40;7.53;;;2.23;;
71626;SDS011;59475;52.464;13.590;2023-09-30T02:32:06;7.80;;;2.38;;
71626;SDS011;59475;52.464;13.590;2023-09-30T02:34:31;6.67;;;2.13;;
71626;SDS011;59475;52.464;13.590;2023-09-30T02:36:56;9.40;;;2.23;;
71626;SDS011;59475;52.464;13.590;2023-09-30T02:39:25;9.27;;;2.47;;
71626;SDS011;59475;52.464;13.590;2023-09-30T02:41:51;10.13;;;2.70;;
71626;SDS011;59475;52.464;13.590;2023-09-30T02:44:17;6.55;;;2.22;;
71626;SDS011;59475;52.464;13.590;2023-09-30T02:46:43;11.33;;;2.67;;
71626;SDS011;59475;52.464;13.590;2023-09-30T02:49:08;9.60;;;2.23;;
71626;SDS011;59475;52.464;13.590;2023-09-30T02:51:33;12.10;;;2.37;;
71626;SDS011;59475;52.464;13.590;2023-09-30T02:53:59;9.30;;;2.75;;
71626;SDS011;59475;52.464;13.590;2023-09-30T02:56:25;9.03;;;2.40;;
71626;SDS011;59475;52.464;13.590;2023-09-30T02:58:51;6.68;;;2.15;;
71626;SDS011;59475;52.464;13.590;2023-09-30T03:01:17;13.07;;;2.30;;
71626;SDS011;59475;52.464;13.590;2023-09-30T03:03:43;12.47;;;2.67;;
71626;SDS011;59475;52.464;13.590;2023-09-30T03:06:09;7.72;;;2.25;;
71626;SDS011;59475;52.464;13.590;2023-09-30T03:08:35;10.35;;;3.03;;
71626;SDS011;59475;52.464;13.590;2023-09-30T03:11:01;13.77;;;2.90;;
71626;SDS011;59475;52.464;13.590;2023-09-30T03:13:27;13.50;;;2.90;;
71626;SDS011;59475;52.464;13.590;2023-09-30T03:15:52;12.43;;;2.70;;
71626;SDS011;59475;52.464;13.590;2023-09-30T03:21:40;8.68;;;2.70;;
71626;SDS011;59475;52.464;13.590;2023-09-30T03:24:05;9.13;;;3.13;;
71626;SDS011;59475;52.464;13.590;2023-09-30T03:26:33;8.93;;;2.72;;
71626;SDS011;59475;52.464;13.590;2023-09-30T03:28:59;10.48;;;2.83;;
71626;SDS011;59475;52.464;13.590;2023-09-30T03:34:46;13.25;;;3.10;;
71626;SDS011;59475;52.464;13.590;2023-09-30T03:37:11;9.50;;;2.70;;
71626;SDS011;59475;52.464;13.590;2023-09-30T03:39:37;10.05;;;2.67;;
71626;SDS011;59475;52.464;13.590;2023-09-30T03:42:03;11.30;;;2.93;;
71626;SDS011;59475;52.464;13.590;2023-09-30T03:44:28;11.73;;;2.97;;
71626;SDS011;59475;52.464;13.590;2023-09-30T03:46:54;12.83;;;2.27;;
71626;SDS011;59475;52.464;13.590;2023-09-30T03:49:19;9.67;;;2.37;;
71626;SDS011;59475;52.464;13.590;2023-09-30T03:51:45;11.63;;;2.58;;
71626;SDS011;59475;52.464;13.590;2023-09-30T03:54:11;13.80;;;3.97;;
71626;SDS011;59475;52.464;13.590;2023-09-30T03:56:36;11.83;;;2.70;;
71626;SDS011;59475;52.464;13.590;2023-09-30T03:59:03;11.30;;;3.30;;
71626;SDS011;59475;52.464;13.590;2023-09-30T04:01:29;12.47;;;2.70;;
71626;SDS011;59475;52.464;13.590;2023-09-30T04:03:55;12.35;;;2.60;;
71626;SDS011;59475;52.464;13.590;2023-09-30T04:06:21;12.20;;;2.37;;
71626;SDS011;59475;52.464;13.590;2023-09-30T04:08:47;9.30;;;2.45;;
71626;SDS011;59475;52.464;13.590;2023-09-30T04:14:34;14.65;;;3.50;;
71626;SDS011;59475;52.464;13.590;2023-09-30T04:16:59;8.43;;;2.63;;
71626;SDS011;59475;52.464;13.590;2023-09-30T04:19:25;13.27;;;3.03;;
71626;SDS011;59475;52.464;13.590;2023-09-30T04:21:50;14.73;;;3.43;;
71626;SDS011;59475;52.464;13.590;2023-09-30T04:24:15;8.70;;;2.60;;
71626;SDS011;59475;52.464;13.590;2023-09-30T04:26:41;10.47;;;2.80;;
71626;SDS011;59475;52.464;13.590;2023-09-30T04:29:06;11.53;;;2.87;;
71626;SDS011;59475;52.464;13.590;2023-09-30T04:34:57;13.00;;;2.65;;
71626;SDS011;59475;52.464;13.590;2023-09-30T04:37:22;13.77;;;3.47;;
71626;SDS011;59475;52.464;13.590;2023-09-30T04:39:48;10.80;;;3.23;;
71626;SDS011;59475;52.464;13.590;2023-09-30T04:42:13;14.13;;;3.00;;
71626;SDS011;59475;52.464;13.590;2023-09-30T04:44:39;15.73;;;3.80;;
71626;SDS011;59475;52.464;13.590;2023-09-30T04:47:06;11.70;;;3.13;;
71626;SDS011;59475;52.464;13.590;2023-09-30T04:49:32;14.27;;;2.80;;
71626;SDS011;59475;52.464;13.590;2023-09-30T04:51:57;11.70;;;2.87;;
71626;SDS011;59475;52.464;13.590;2023-09-30T04:54:22;11.57;;;2.80;;
71626;SDS011;59475;52.464;13.590;2023-09-30T04:56:48;12.07;;;2.97;;
71626;SDS011;59475;52.464;13.590;2023-09-30T04:59:13;12.67;;;4.17;;
71626;SDS011;59475;52.464;13.590;2023-09-30T05:01:39;12.37;;;2.50;;
71626;SDS011;59475;52.464;13.590;2023-09-30T05:04:04;10.97;;;3.20;;
71626;SDS011;59475;52.464;13.590;2023-09-30T05:06:30;9.07;;;3.25;;
71626;SDS011;59475;52.464;13.590;2023-09-30T05:08:57;16.33;;;4.00;;
71626;SDS011;59475;52.464;13.590;2023-09-30T05:11:23;10.40;;;3.22;;
71626;SDS011;59475;52.464;13.590;2023-09-30T05:13:49;13.50;;;3.13;;
71626;SDS011;59475;52.464;13.590;2023-09-30T05:16:14;10.88;;;2.78;;
71626;SDS011;59475;52.464;13.590;2023-09-30T05:18:41;12.67;;;2.73;;
71626;SDS011;59475;52.464;13.590;2023-09-30T05:21:06;9.35;;;3.30;;
71626;SDS011;59475;52.464;13.590;2023-09-30T05:23:31;12.07;;;3.50;;
71626;SDS011;59475;52.464;13.590;2023-09-30T05:25:57;15.50;;;3.00;;
71626;SDS011;59475;52.464;13.590;2023-09-30T05:28:23;20.30;;;3.28;;
71626;SDS011;59475;52.464;13.590;2023-09-30T05:30:48;11.97;;;2.90;;
71626;SDS011;59475;52.464;13.590;2023-09-30T05:33:15;13.95;;;3.05;;
71626;SDS011;59475;52.464;13.590;2023-09-30T05:35:41;11.15;;;2.63;;
71626;SDS011;59475;52.464;13.590;2023-09-30T05:38:07;16.63;;;3.30;;
71626;SDS011;59475;52.464;13.590;2023-09-30T05:40:33;15.23;;;3.40;;
71626;SDS011;59475;52.464;13.590;2023-09-30T05:42:58;10.17;;;3.57;;
71626;SDS011;59475;52.464;13.590;2023-09-30T05:45:24;23.50;;;4.35;;
71626;SDS011;59475;52.464;13.590;2023-09-30T05:47:51;14.17;;;3.23;;
71626;SDS011;59475;52.464;13.590;2023-09-30T05:50:21;14.20;;;3.35;;
71626;SDS011;59475;52.464;13.590;2023-09-30T05:52:50;13.98;;;3.03;;
71626;SDS011;59475;52.464;13.590;2023-09-30T05:55:16;10.30;;;2.58;;
71626;SDS011;59475;52.464;13.590;2023-09-30T05:57:45;12.73;;;3.90;;
71626;SDS011;59475;52.464;13.590;2023-09-30T06:00:11;17.03;;;3.70;;
71626;SDS011;59475;52.464;13.590;2023-09-30T06:02:46;10.70;;;3.33;;
71626;SDS011;59475;52.464;13.590;2023-09-30T06:05:12;11.55;;;3.08;;
71626;SDS011;59475;52.464;13.590;2023-09-30T06:07:37;12.80;;;3.40;;
71626;SDS011;59475;52.464;13.590;2023-09-30T06:13:24;9.60;;;2.55;;
71626;SDS011;59475;52.464;13.590;2023-09-30T06:15:52;13.05;;;3.00;;
71626;SDS011;59475;52.464;13.590;2023-09-30T06:18:17;12.53;;;3.80;;
71626;SDS011;59475;52.464;13.590;2023-09-30T06:20:42;11.53;;;3.37;;
71626;SDS011;59475;52.464;13.590;2023-09-30T06:23:08;10.73;;;2.70;;
71626;SDS011;59475;52.464;13.590;2023-09-30T06:25:35;14.23;;;3.05;;
71626;SDS011;59475;52.464;13.590;2023-09-30T06:28:00;9.43;;;2.80;;
71626;SDS011;59475;52.464;13.590;2023-09-30T06:30:25;10.02;;;2.85;;
71626;SDS011;59475;52.464;13.590;2023-09-30T06:36:16;13.82;;;3.00;;
71626;SDS011;59475;52.464;13.590;2023-09-30T06:38:41;12.73;;;2.73;;
71626;SDS011;59475;52.464;13.590;2023-09-30T06:41:08;10.13;;;2.78;;
71626;SDS011;59475;52.464;13.590;2023-09-30T06:46:55;12.05;;;3.53;;
71626;SDS011;59475;52.464;13.590;2023-09-30T06:49:21;9.70;;;2.43;;
71626;SDS011;59475;52.464;13.590;2023-09-30T06:51:46;12.57;;;2.63;;
71626;SDS011;59475;52.464;13.590;2023-09-30T06:54:12;15.50;;;3.10;;
71626;SDS011;59475;52.464;13.590;2023-09-30T06:56:38;13.90;;;3.17;;
71626;SDS011;59475;52.464;13.590;2023-09-30T06:59:03;10.83;;;2.80;;
71626;SDS011;59475;52.464;13.590;2023-09-30T07:01:29;11.23;;;3.20;;
71626;SDS011;59475;52.464;13.590;2023-09-30T07:03:54;6.73;;;2.43;;
71626;SDS011;59475;52.464;13.590;2023-09-30T07:06:23;15.13;;;3.10;;
71626;SDS011;59475;52.464;13.590;2023-09-30T07:08:49;9.80;;;2.37;;
71626;SDS011;59475;52.464;13.590;2023-09-30T07:11:15;9.90;;;2.53;;
71626;SDS011;59475;52.464;13.590;2023-09-30T07:13:40;11.10;;;2.80;;
71626;SDS011;59475;52.464;13.590;2023-09-30T07:16:06;8.50;;;2.70;;
71626;SDS011;59475;52.464;13.590;2023-09-30T07:18:31;12.10;;;2.50;;
71626;SDS011;59475;52.464;13.590;2023-09-30T07:20:57;9.30;;;2.60;;
71626;SDS011;59475;52.464;13.590;2023-09-30T07:23:22;9.17;;;2.67;;
71626;SDS011;59475;52.464;13.590;2023-09-30T07:29:09;9.38;;;2.50;;
71626;SDS011;59475;52.464;13.590;2023-09-30T07:31:35;9.52;;;2.75;;
71626;SDS011;59475;52.464;13.590;2023-09-30T07:34:01;13.27;;;3.43;;
71626;SDS011;59475;52.464;13.590;2023-09-30T07:39:49;11.55;;;2.58;;
71626;SDS011;59475;52.464;13.590;2023-09-30T07:45:36;14.88;;;3.47;;
71626;SDS011;59475;52.464;13.590;2023-09-30T07:48:02;10.23;;;2.63;;
71626;SDS011;59475;52.464;13.590;2023-09-30T07:50:29;8.77;;;2.53;;
71626;SDS011;59475;52.464;13.590;2023-09-30T07:52:55;10.95;;;2.90;;
71626;SDS011;59475;52.464;13.590;2023-09-30T07:55:20;10.87;;;2.80;;
71626;SDS011;59475;52.464;13.590;2023-09-30T07:57:46;11.83;;;2.90;;
71626;SDS011;59475;52.464;13.590;2023-09-30T08:00:11;8.70;;;2.13;;
71626;SDS011;59475;52.464;13.590;2023-09-30T08:02:40;12.77;;;2.70;;
71626;SDS011;59475;52.464;13.590;2023-09-30T08:05:06;11.35;;;2.67;;
71626;SDS011;59475;52.464;13.590;2023-09-30T08:07:32;7.67;;;2.80;;
71626;SDS011;59475;52.464;13.590;2023-09-30T08:09:59;14.98;;;2.95;;
71626;SDS011;59475;52.464;13.590;2023-09-30T08:12:24;8.10;;;2.30;;
71626;SDS011;59475;52.464;13.590;2023-09-30T08:14:49;10.00;;;2.30;;
71626;SDS011;59475;52.464;13.590;2023-09-30T08:17:16;13.35;;;2.95;;
71626;SDS011;59475;52.464;13.590;2023-09-30T08:19:42;10.80;;;2.80;;
71626;SDS011;59475;52.464;13.590;2023-09-30T08:22:08;10.50;;;2.75;;
71626;SDS011;59475;52.464;13.590;2023-09-30T08:24:34;7.45;;;2.35;;
71626;SDS011;59475;52.464;13.590;2023-09-30T08:27:00;10.13;;;2.80;;
71626;SDS011;59475;52.464;13.590;2023-09-30T08:32:47;9.40;;;2.63;;
71626;SDS011;59475;52.464;13.590;2023-09-30T08:38:38;10.52;;;2.50;;
71626;SDS011;59475;52.464;13.590;2023-09-30T08:41:05;5.22;;;2.13;;
71626;SDS011;59475;52.464;13.590;2023-09-30T08:43:34;9.67;;;2.40;;
71626;SDS011;59475;52.464;13.590;2023-09-30T08:46:04;9.75;;;2.78;;
71626;SDS011;59475;52.464;13.590;2023-09-30T08:51:51;9.73;;;2.10;;
71626;SDS011;59475;52.464;13.590;2023-09-30T08:54:17;8.27;;;2.83;;
71626;SDS011;59475;52.464;13.590;2023-09-30T09:00:05;10.63;;;2.47;;
71626;SDS011;59475;52.464;13.590;2023-09-30T09:02:34;11.93;;;2.50;;
71626;SDS011;59475;52.464;13.590;2023-09-30T09:04:59;9.45;;;2.55;;
71626;SDS011;59475;52.464;13.590;2023-09-30T09:07:26;10.23;;;1.70;;
71626;SDS011;59475;52.464;13.590;2023-09-30T09:10:04;7.43;;;2.40;;
71626;SDS011;59475;52.464;13.590;2023-09-30T09:16:07;11.88;;;2.30;;
71626;SDS011;59475;52.464;13.590;2023-09-30T09:21:58;8.57;;;2.37;;
71626;SDS011;59475;52.464;13.590;2023-09-30T09:24:29;9.82;;;2.28;;
71626;SDS011;59475;52.464;13.590;2023-09-30T09:32:59;10.50;;;2.40;;
71626;SDS011;59475;52.464;13.590;2023-09-30T09:35:31;9.53;;;2.50;;
71626;SDS011;59475;52.464;13.590;2023-09-30T09:38:02;12.88;;;2.80;;
71626;SDS011;59475;52.464;13.590;2023-09-30T09:43:50;9.55;;;1.85;;
71626;SDS011;59475;52.464;13.590;2023-09-30T09:46:16;5.90;;;1.77;;
71626;SDS011;59475;52.464;13.590;2023-09-30T09:48:42;12.70;;;2.83;;
71626;SDS011;59475;52.464;13.590;2023-09-30T09:54:32;9.45;;;2.40;;
71626;SDS011;59475;52.464;13.590;2023-09-30T09:56:58;8.90;;;2.33;;
71626;SDS011;59475;52.464;13.590;2023-09-30T09:59:26;12.27;;;2.28;;
71626;SDS011;59475;52.464;13.590;2023-09-30T10:01:53;8.77;;;2.00;;
71626;SDS011;59475;52.464;13.590;2023-09-30T10:04:18;12.83;;;2.07;;
71626;SDS011;59475;52.464;13.590;2023-09-30T10:06:44;8.45;;;2.10;;
71626;SDS011;59475;52.464;13.590;2023-09-30T10:09:17;10.15;;;2.20;;
71626;SDS011;59475;52.464;13.590;2023-09-30T10:11:43;12.63;;;2.63;;
71626;SDS011;59475;52.464;13.590;2023-09-30T10:20:30;30.00;;;7.72;;
71626;SDS011;59475;52.464;13.590;2023-09-30T10:25:46;9.60;;;2.43;;
71626;SDS011;59475;52.464;13.590;2023-09-30T10:31:17;18.80;;;5.07;;
71626;SDS011;59475;52.464;13.590;2023-09-30T10:36:47;12.23;;;2.10;;
71626;SDS011;59475;52.464;13.590;2023-09-30T10:39:13;8.13;;;1.60;;
71626;SDS011;59475;52.464;13.590;2023-09-30T10:46:57;7.47;;;1.70;;
71626;SDS011;59475;52.464;13.590;2023-09-30T10:53:10;7.03;;;1.83;;
71626;SDS011;59475;52.464;13.590;2023-09-30T10:55:36;10.43;;;1.75;;
71626;SDS011;59475;52.464;13.590;2023-09-30T10:58:02;6.93;;;1.65;;
71626;SDS011;59475;52.464;13.590;2023-09-30T11:00:28;9.20;;;1.97;;
71626;SDS011;59475;52.464;13.590;2023-09-30T11:06:17;5.80;;;1.45;;
71626;SDS011;59475;52.464;13.590;2023-09-30T11:08:46;9.07;;;2.03;;
71626;SDS011;59475;52.464;13.590;2023-09-30T11:11:17;8.35;;;1.67;;
71626;SDS011;59475;52.464;13.590;2023-09-30T11:13:42;6.63;;;1.40;;
71626;SDS011;59475;52.464;13.590;2023-09-30T11:16:08;6.83;;;1.93;;
71626;SDS011;59475;52.464;13.590;2023-09-30T11:21:55;10.85;;;1.65;;
71626;SDS011;59475;52.464;13.590;2023-09-30T11:24:22;8.48;;;1.67;;
71626;SDS011;59475;52.464;13.590;2023-09-30T11:26:48;7.60;;;1.70;;
71626;SDS011;59475;52.464;13.590;2023-09-30T11:29:18;4.97;;;1.60;;
71626;SDS011;59475;52.464;13.590;2023-09-30T11:31:45;6.47;;;1.87;;
71626;SDS011;59475;52.464;13.590;2023-09-30T11:34:13;9.52;;;1.50;;
71626;SDS011;59475;52.464;13.590;2023-09-30T11:36:41;8.93;;;1.70;;
71626;SDS011;59475;52.464;13.590;2023-09-30T11:39:26;6.50;;;1.40;;
71626;SDS011;59475;52.464;13.590;2023-09-30T11:41:52;8.73;;;1.60;;
71626;SDS011;59475;52.464;13.590;2023-09-30T11:44:20;6.35;;;1.55;;
71626;SDS011;59475;52.464;13.590;2023-09-30T11:46:49;6.53;;;1.60;;
71626;SDS011;59475;52.464;13.590;2023-09-30T11:51:52;6.53;;;1.90;;
71626;SDS011;59475;52.464;13.590;2023-09-30T11:57:39;6.87;;;1.40;;
71626;SDS011;59475;52.464;13.590;2023-09-30T12:00:04;5.97;;;1.42;;
71626;SDS011;59475;52.464;13.590;2023-09-30T12:02:38;8.10;;;1.57;;
71626;SDS011;59475;52.464;13.590;2023-09-30T12:05:05;5.75;;;1.50;;
71626;SDS011;59475;52.464;13.590;2023-09-30T12:07:36;6.15;;;1.58;;
71626;SDS011;59475;52.464;13.590;2023-09-30T12:10:02;4.43;;;1.30;;
71626;SDS011;59475;52.464;13.590;2023-09-30T12:12:28;4.55;;;1.50;;
71626;SDS011;59475;52.464;13.590;2023-09-30T12:14:53;8.57;;;1.80;;
71626;SDS011;59475;52.464;13.590;2023-09-30T12:17:20;8.38;;;1.85;;
71626;SDS011;59475;52.464;13.590;2023-09-30T12:23:08;6.23;;;1.50;;
71626;SDS011;59475;52.464;13.590;2023-09-30T12:28:55;6.60;;;1.60;;
71626;SDS011;59475;52.464;13.590;2023-09-30T12:31:21;5.40;;;1.17;;
71626;SDS011;59475;52.464;13.590;2023-09-30T12:33:48;4.27;;;1.53;;
71626;SDS011;59475;52.464;13.590;2023-09-30T12:36:16;5.10;;;1.42;;
71626;SDS011;59475;52.464;13.590;2023-09-30T12:42:05;8.20;;;1.65;;
71626;SDS011;59475;52.464;13.590;2023-09-30T12:44:33;7.75;;;1.55;;
71626;SDS011;59475;52.464;13.590;2023-09-30T12:46:59;6.20;;;1.30;;
71626;SDS011;59475;52.464;13.590;2023-09-30T12:49:24;6.50;;;1.47;;
71626;SDS011;59475;52.464;13.590;2023-09-30T12:51:49;6.83;;;1.40;;
71626;SDS011;59475;52.464;13.590;2023-09-30T12:54:15;5.60;;;1.50;;
71626;SDS011;59475;52.464;13.590;2023-09-30T12:56:43;7.78;;;1.60;;
71626;SDS011;59475;52.464;13.590;2023-09-30T12:59:08;4.93;;;1.43;;
71626;SDS011;59475;52.464;13.590;2023-09-30T13:01:34;6.10;;;1.33;;
71626;SDS011;59475;52.464;13.590;2023-09-30T13:03:59;4.33;;;1.30;;
71626;SDS011;59475;52.464;13.590;2023-09-30T13:06:24;5.50;;;1.30;;
71626;SDS011;59475;52.464;13.590;2023-09-30T13:08:50;5.37;;;1.90;;
71626;SDS011;59475;52.464;13.590;2023-09-30T13:11:15;5.50;;;1.23;;
71626;SDS011;59475;52.464;13.590;2023-09-30T13:13:41;7.07;;;1.27;;
71626;SDS011;59475;52.464;13.590;2023-09-30T13:16:06;6.33;;;1.73;;
71626;SDS011;59475;52.464;13.590;2023-09-30T13:18:34;9.65;;;1.40;;
71626;SDS011;59475;52.464;13.590;2023-09-30T13:20:59;4.93;;;1.27;;
71626;SDS011;59475;52.464;13.590;2023-09-30T13:23:25;5.40;;;1.40;;
71626;SDS011;59475;52.464;13.590;2023-09-30T13:25:52;4.03;;;1.40;;
71626;SDS011;59475;52.464;13.590;2023-09-30T13:28:18;9.20;;;1.60;;
71626;SDS011;59475;52.464;13.590;2023-09-30T13:30:43;5.43;;;1.40;;
71626;SDS011;59475;52.464;13.590;2023-09-30T13:33:10;6.83;;;1.30;;
71626;SDS011;59475;52.464;13.590;2023-09-30T13:35:36;5.45;;;1.50;;
71626;SDS011;59475;52.464;13.590;2023-09-30T13:38:01;8.80;;;1.77;;
71626;SDS011;59475;52.464;13.590;2023-09-30T13:43:49;3.38;;;1.42;;
71626;SDS011;59475;52.464;13.590;2023-09-30T13:46:15;4.33;;;1.20;;
71626;SDS011;59475;52.464;13.590;2023-09-30T13:52:02;3.10;;;1.17;;
71626;SDS011;59475;52.464;13.590;2023-09-30T13:54:29;6.32;;;1.52;;
71626;SDS011;59475;52.464;13.590;2023-09-30T13:56:54;4.97;;;1.33;;
71626;SDS011;59475;52.464;13.590;2023-09-30T13:59:19;2.30;;;1.13;;
71626;SDS011;59475;52.464;13.590;2023-09-30T14:01:45;4.70;;;1.30;;
71626;SDS011;59475;52.464;13.590;2023-09-30T14:04:10;3.63;;;1.40;;
71626;SDS011;59475;52.464;13.590;2023-09-30T14:09:57;5.43;;;1.43;;
71626;SDS011;59475;52.464;13.590;2023-09-30T14:12:22;5.07;;;1.15;;
71626;SDS011;59475;52.464;13.590;2023-09-30T14:14:48;6.80;;;1.30;;
71626;SDS011;59475;52.464;13.590;2023-09-30T14:17:14;3.88;;;1.17;;
71626;SDS011;59475;52.464;13.590;2023-09-30T14:19:40;9.27;;;1.37;;
71626;SDS011;59475;52.464;13.590;2023-09-30T14:22:05;6.68;;;1.58;;
71626;SDS011;59475;52.464;13.590;2023-09-30T14:24:33;5.25;;;1.05;;
71626;SDS011;59475;52.464;13.590;2023-09-30T14:26:59;4.13;;;1.13;;
71626;SDS011;59475;52.464;13.590;2023-09-30T14:32:47;4.07;;;1.38;;
71626;SDS011;59475;52.464;13.590;2023-09-30T14:35:12;5.07;;;1.30;;
71626;SDS011;59475;52.464;13.590;2023-09-30T14:37:37;4.47;;;1.40;;
71626;SDS011;59475;52.464;13.590;2023-09-30T14:40:03;5.97;;;1.20;;
71626;SDS011;59475;52.464;13.590;2023-09-30T14:45:57;5.72;;;1.13;;
71626;SDS011;59475;52.464;13.590;2023-09-30T14:51:44;5.38;;;1.10;;
71626;SDS011;59475;52.464;13.590;2023-09-30T14:57:31;5.10;;;1.30;;
71626;SDS011;59475;52.464;13.590;2023-09-30T14:59:57;4.33;;;1.47;;
71626;SDS011;59475;52.464;13.590;2023-09-30T15:02:24;7.22;;;1.50;;
71626;SDS011;59475;52.464;13.590;2023-09-30T15:04:51;5.07;;;1.40;;
71626;SDS011;59475;52.464;13.590;2023-09-30T15:07:16;2.93;;;1.20;;
71626;SDS011;59475;52.464;13.590;2023-09-30T15:09:42;5.80;;;1.23;;
71626;SDS011;59475;52.464;13.590;2023-09-30T15:12:07;4.23;;;1.20;;
71626;SDS011;59475;52.464;13.590;2023-09-30T15:14:32;4.00;;;1.00;;
71626;SDS011;59475;52.464;13.590;2023-09-30T15:16:58;4.73;;;1.07;;
71626;SDS011;59475;52.464;13.590;2023-09-30T15:19:23;8.90;;;1.50;;
71626;SDS011;59475;52.464;13.590;2023-09-30T15:21:49;3.22;;;1.30;;
71626;SDS011;59475;52.464;13.590;2023-09-30T15:24:14;4.60;;;1.50;;
71626;SDS011;59475;52.464;13.590;2023-09-30T15:26:40;4.80;;;1.57;;
71626;SDS011;59475;52.464;13.590;2023-09-30T15:29:05;6.18;;;1.20;;
71626;SDS011;59475;52.464;13.590;2023-09-30T15:31:30;4.73;;;1.07;;
71626;SDS011;59475;52.464;13.590;2023-09-30T15:33:56;6.30;;;1.60;;
71626;SDS011;59475;52.464;13.590;2023-09-30T15:36:22;4.05;;;1.48;;
71626;SDS011;59475;52.464;13.590;2023-09-30T15:38:48;4.70;;;1.30;;
71626;SDS011;59475;52.464;13.590;2023-09-30T15:41:14;4.25;;;1.40;;
71626;SDS011;59475;52.464;13.590;2023-09-30T15:43:40;5.85;;;1.80;;
71626;SDS011;59475;52.464;13.590;2023-09-30T15:46:09;8.13;;;1.63;;
71626;SDS011;59475;52.464;13.590;2023-09-30T15:51:56;5.47;;;1.23;;
71626;SDS011;59475;52.464;13.590;2023-09-30T15:54:22;4.65;;;1.60;;
71626;SDS011;59475;52.464;13.590;2023-09-30T15:56:47;5.97;;;1.37;;
71626;SDS011;59475;52.464;13.590;2023-09-30T15:59:13;5.00;;;1.30;;
71626;SDS011;59475;52.464;13.590;2023-09-30T16:01:38;3.03;;;1.20;;
71626;SDS011;59475;52.464;13.590;2023-09-30T16:04:04;6.10;;;1.45;;
71626;SDS011;59475;52.464;13.590;2023-09-30T16:06:29;8.33;;;1.63;;
71626;SDS011;59475;52.464;13.590;2023-09-30T16:08:55;3.60;;;1.30;;
71626;SDS011;59475;52.464;13.590;2023-09-30T16:11:27;5.97;;;1.42;;
71626;SDS011;59475;52.464;13.590;2023-09-30T16:13:53;7.73;;;1.40;;
71626;SDS011;59475;52.464;13.590;2023-09-30T16:19:40;6.75;;;1.70;;
71626;SDS011;59475;52.464;13.590;2023-09-30T16:22:06;7.47;;;1.63;;
71626;SDS011;59475;52.464;13.590;2023-09-30T16:24:31;5.55;;;1.52;;
71626;SDS011;59475;52.464;13.590;2023-09-30T16:26:57;7.70;;;2.00;;
71626;SDS011;59475;52.464;13.590;2023-09-30T16:29:22;3.53;;;1.30;;
71626;SDS011;59475;52.464;13.590;2023-09-30T16:31:47;8.65;;;1.85;;
71626;SDS011;59475;52.464;13.590;2023-09-30T16:34:13;6.23;;;1.30;;
71626;SDS011;59475;52.464;13.590;2023-09-30T16:36:38;4.40;;;1.57;;
71626;SDS011;59475;52.464;13.590;2023-09-30T16:39:04;4.75;;;1.90;;
71626;SDS011;59475;52.464;13.590;2023-09-30T16:41:32;5.00;;;2.00;;
71626;SDS011;59475;52.464;13.590;2023-09-30T16:43:58;6.55;;;1.95;;
71626;SDS011;59475;52.464;13.590;2023-09-30T16:46:23;5.73;;;1.80;;
71626;SDS011;59475;52.464;13.590;2023-09-30T16:48:49;4.27;;;1.80;;
71626;SDS011;59475;52.464;13.590;2023-09-30T16:51:14;6.63;;;1.92;;
71626;SDS011;59475;52.464;13.590;2023-09-30T16:53:40;7.97;;;1.63;;